Richland Hills, Texas
Current Conditions -  °F | °C
As of 11:53 AM on Wednesday 28 Jan 2015 (Local Time) from KFTW Reporting Station
Clear Clear  
Wind Chill: 76°   Ceiling: Unl
Heat Index: 76°   Visibility: 10mi
Dew Point: 45°   Wind: 10mph
Humidity: 33%   Direction: 150°SSE
Pressure: 30.07"   Gusts: NA
Location:  32.8656°N, 97.2164°W
Report Text: KFTW 281753Z 15009KT 10SM CLR 24/07 A3007 RMK AO2 SLP176 T02440072 10244 20094 58010
Loading
Personal Weather Stations






























Interactive Weather Map New forecast layout! Learn more

10-Day Weather Forecast

Advertisements
Track Severe Weather on mobile